createdAt,value
2024-05-09T00:00:46.742Z,3.80
2024-05-09T00:06:09.736Z,3.30
2024-05-09T00:11:15.267Z,3.20
2024-05-09T00:16:18.007Z,3.70
2024-05-09T00:21:20.609Z,3.60
2024-05-09T00:26:24.265Z,3.50
2024-05-09T00:31:26.905Z,3.60
2024-05-09T00:36:29.530Z,3.60
2024-05-09T00:41:32.194Z,3.70
2024-05-09T00:46:34.922Z,4.00
2024-05-09T00:51:39.867Z,3.80
2024-05-09T00:56:42.879Z,3.60
2024-05-09T01:01:46.285Z,3.40
2024-05-09T01:06:49.093Z,3.40
2024-05-09T01:11:51.671Z,4.00
2024-05-09T01:16:54.704Z,4.50
2024-05-09T01:21:57.506Z,4.30
2024-05-09T01:27:00.066Z,4.40
2024-05-09T01:32:04.555Z,4.00
2024-05-09T01:37:07.378Z,3.90
2024-05-09T01:42:09.922Z,4.40
2024-05-09T01:47:12.688Z,4.30
2024-05-09T01:52:15.466Z,4.40
2024-05-09T01:57:18.188Z,4.20
2024-05-09T02:02:20.899Z,5.00
2024-05-09T02:07:23.558Z,4.60
2024-05-09T02:12:26.261Z,4.80
2024-05-09T02:17:29.083Z,4.30
2024-05-09T02:22:31.763Z,4.00
2024-05-09T02:27:34.311Z,4.30
2024-05-09T02:32:36.899Z,4.50
2024-05-09T02:37:39.555Z,4.80
2024-05-09T02:42:42.079Z,3.70
2024-05-09T02:47:44.822Z,4.10
2024-05-09T02:52:47.553Z,4.40
2024-05-09T02:57:50.104Z,5.10
2024-05-09T03:02:52.946Z,5.60
2024-05-09T03:07:55.754Z,5.60
2024-05-09T03:12:58.406Z,5.10
2024-05-09T03:18:01.605Z,4.80
2024-05-09T03:23:06.328Z,4.80
2024-05-09T03:28:11.561Z,4.30
2024-05-09T03:33:16.746Z,4.80
2024-05-09T03:38:19.831Z,4.70
2024-05-09T03:43:22.411Z,4.30
2024-05-09T03:48:25.083Z,5.80
2024-05-09T03:53:28.061Z,6.60
2024-05-09T03:58:30.599Z,6.00
2024-05-09T04:03:34.054Z,5.40
2024-05-09T04:08:37.586Z,5.90
2024-05-09T04:13:40.318Z,6.20
2024-05-09T04:18:42.955Z,5.50
2024-05-09T04:23:45.675Z,4.80
2024-05-09T04:28:48.377Z,4.80
2024-05-09T04:33:51.130Z,5.20
2024-05-09T04:38:53.769Z,5.20
2024-05-09T04:43:56.366Z,4.70
2024-05-09T04:48:58.994Z,4.40
2024-05-09T04:54:02.048Z,5.10
2024-05-09T04:59:04.635Z,3.90
2024-05-09T05:04:07.316Z,5.10
2024-05-09T05:09:09.861Z,5.60
2024-05-09T05:14:12.517Z,6.90
2024-05-09T05:19:17.141Z,6.60
2024-05-09T05:24:20.357Z,6.60
2024-05-09T05:29:23.289Z,5.00
2024-05-09T05:34:25.916Z,3.70
2024-05-09T05:39:28.694Z,3.10
2024-05-09T05:44:31.470Z,3.30
2024-05-09T05:49:34.497Z,3.20
2024-05-09T05:54:37.115Z,3.60
2024-05-09T05:59:40.403Z,3.50
2024-05-09T06:04:43.159Z,3.40
2024-05-09T06:09:48.197Z,3.50
2024-05-09T06:14:52.327Z,3.40
2024-05-09T06:19:55.079Z,3.10
2024-05-09T06:24:57.886Z,3.70
2024-05-09T06:30:00.479Z,3.10
2024-05-09T06:35:03.289Z,2.80
2024-05-09T06:40:07.588Z,2.40
2024-05-09T06:45:12.440Z,2.50
2024-05-09T06:50:23.266Z,2.60
2024-05-09T06:55:27.189Z,2.60
2024-05-09T07:00:35.968Z,2.70
2024-05-09T07:05:42.473Z,2.50
2024-05-09T07:10:45.648Z,2.00
2024-05-09T07:15:48.425Z,2.50
2024-05-09T07:20:51.244Z,2.60
2024-05-09T07:25:54.005Z,2.60
2024-05-09T07:30:56.666Z,2.20
2024-05-09T07:35:59.324Z,2.20
2024-05-09T07:41:02.077Z,2.40
2024-05-09T07:47:04.433Z,2.30
2024-05-09T07:56:35.024Z,2.90
2024-05-09T08:01:37.841Z,2.40
2024-05-09T08:06:40.511Z,2.30
2024-05-09T08:11:44.692Z,2.80
2024-05-09T08:16:47.392Z,2.10
2024-05-09T08:21:50.033Z,2.50
2024-05-09T08:26:52.739Z,2.40
2024-05-09T08:31:56.867Z,2.40
2024-05-09T08:37:03.814Z,2.60
2024-05-09T08:42:16.789Z,2.40
2024-05-09T08:47:19.450Z,1.90
2024-05-09T08:52:22.121Z,2.60
2024-05-09T08:57:26.024Z,2.00
2024-05-09T09:02:29.023Z,3.20
2024-05-09T09:07:33.420Z,3.50
2024-05-09T09:12:36.149Z,3.20
2024-05-09T09:17:38.977Z,2.90
2024-05-09T09:22:41.587Z,2.30
2024-05-09T09:27:44.348Z,2.30
2024-05-09T09:32:49.688Z,3.60
2024-05-09T09:37:53.830Z,2.80
2024-05-09T09:42:57.878Z,2.30
2024-05-09T09:48:01.840Z,2.20
2024-05-09T09:53:07.483Z,2.40
2024-05-09T09:58:13.214Z,2.20
2024-05-09T10:03:16.962Z,2.10
2024-05-09T10:08:21.979Z,2.20
2024-05-09T10:13:33.101Z,2.60
2024-05-09T10:18:37.112Z,2.60
2024-05-09T10:23:43.179Z,1.70
2024-05-09T10:28:45.834Z,2.50
2024-05-09T10:33:50.763Z,2.10
2024-05-09T10:38:55.106Z,2.10
2024-05-09T10:43:57.692Z,2.10
2024-05-09T10:49:04.241Z,2.30
2024-05-09T10:54:08.897Z,2.50
2024-05-09T10:59:12.849Z,2.70
2024-05-09T11:04:15.482Z,2.30
2024-05-09T11:09:18.273Z,2.10
2024-05-09T11:14:21.034Z,2.20
2024-05-09T11:19:23.924Z,1.80
2024-05-09T11:24:26.763Z,1.80
2024-05-09T11:29:40.200Z,1.70
2024-05-09T11:34:42.943Z,1.60
2024-05-09T11:39:45.753Z,1.70
2024-05-09T11:44:48.448Z,2.80
2024-05-09T11:49:51.927Z,1.80
2024-05-09T11:54:54.601Z,7.10
2024-05-09T11:59:57.318Z,2.40
2024-05-09T12:05:00.027Z,2.00
2024-05-09T12:10:03.469Z,2.70
2024-05-09T12:15:07.780Z,2.10
2024-05-09T12:20:20.925Z,2.00
2024-05-09T12:25:28.274Z,1.70
2024-05-09T12:30:36.737Z,1.90
2024-05-09T12:35:44.608Z,1.70
2024-05-09T12:40:49.344Z,1.80
2024-05-09T12:45:52.106Z,1.80
2024-05-09T12:50:57.313Z,1.70
2024-05-09T12:56:02.420Z,1.70
2024-05-09T13:01:06.544Z,1.70
2024-05-09T13:06:10.908Z,1.50
2024-05-09T13:11:14.142Z,1.80
2024-05-09T13:16:16.957Z,1.70
2024-05-09T13:21:19.745Z,1.70
2024-05-09T13:26:22.365Z,1.80
2024-05-09T13:31:25.040Z,1.50
2024-05-09T13:36:28.107Z,1.80
2024-05-09T13:41:30.761Z,1.60
2024-05-09T13:46:33.543Z,1.60
2024-05-09T13:51:36.204Z,1.40
2024-05-09T13:56:39.236Z,1.60
2024-05-09T14:01:41.987Z,1.50
2024-05-09T14:06:44.755Z,1.70
2024-05-09T14:11:47.594Z,1.50
2024-05-09T14:16:50.327Z,1.70
2024-05-09T14:21:52.937Z,1.50
2024-05-09T14:26:56.195Z,1.30
2024-05-09T14:31:58.825Z,1.40
2024-05-09T14:37:01.503Z,1.70
2024-05-09T14:42:04.555Z,1.20
2024-05-09T14:47:07.455Z,1.50
2024-05-09T14:57:13.247Z,1.60
2024-05-09T15:07:19.100Z,1.30
2024-05-09T15:12:21.774Z,1.40
2024-05-09T15:17:24.428Z,1.40
2024-05-09T15:22:26.970Z,1.70
2024-05-09T15:27:30.186Z,1.50
2024-05-09T15:32:33.005Z,1.50
2024-05-09T15:42:41.692Z,1.40
2024-05-09T15:47:45.767Z,1.80
2024-05-09T15:52:49.660Z,1.60
2024-05-09T15:57:52.284Z,1.80
2024-05-09T16:02:55.002Z,1.50
2024-05-09T16:07:58.064Z,1.60
2024-05-09T16:13:00.948Z,1.70
2024-05-09T16:18:04.006Z,1.70
2024-05-09T16:23:07.596Z,1.50
2024-05-09T16:28:11.254Z,1.80
2024-05-09T16:33:16.754Z,2.00
2024-05-09T16:38:21.872Z,1.70
2024-05-09T16:43:24.523Z,2.00
2024-05-09T16:48:27.219Z,2.20
2024-05-09T16:53:29.695Z,2.00
2024-05-09T16:58:32.433Z,1.60
2024-05-09T17:03:35.365Z,2.00
2024-05-09T17:08:38.156Z,2.00
2024-05-09T17:13:42.774Z,2.20
2024-05-09T17:18:48.302Z,1.90
2024-05-09T17:23:54.138Z,2.00
2024-05-09T17:28:57.059Z,2.10
2024-05-09T17:33:59.770Z,2.30
2024-05-09T17:39:02.644Z,2.30
2024-05-09T17:44:06.342Z,2.10
2024-05-09T17:49:09.111Z,2.70
2024-05-09T17:54:11.747Z,2.50
2024-05-09T17:59:14.273Z,2.30
2024-05-09T18:04:17.750Z,2.60
2024-05-09T18:09:20.837Z,2.50
2024-05-09T18:14:23.457Z,2.60
2024-05-09T18:19:26.243Z,3.00
2024-05-09T18:24:28.902Z,3.40
2024-05-09T18:29:31.611Z,3.80
2024-05-09T18:34:34.223Z,4.10
2024-05-09T18:39:36.880Z,4.20
2024-05-09T18:44:39.555Z,3.80
2024-05-09T18:49:42.319Z,3.80
2024-05-09T18:54:45.010Z,4.10
2024-05-09T18:59:47.740Z,3.70
2024-05-09T19:04:51.064Z,3.70
2024-05-09T19:09:53.800Z,4.00
2024-05-09T19:14:56.389Z,4.30
2024-05-09T19:19:59.040Z,3.90
2024-05-09T19:25:01.632Z,3.80
2024-05-09T19:30:11.895Z,4.10
2024-05-09T19:35:19.756Z,3.90
2024-05-09T19:40:29.001Z,3.80
2024-05-09T19:45:35.643Z,3.50
2024-05-09T19:50:43.250Z,3.90
2024-05-09T19:55:50.615Z,3.50
2024-05-09T20:00:53.276Z,3.80
2024-05-09T20:05:55.959Z,4.60
2024-05-09T20:10:58.712Z,4.20
2024-05-09T20:16:01.644Z,4.40
2024-05-09T20:21:04.443Z,4.80
2024-05-09T20:26:08.173Z,4.30
2024-05-09T20:31:10.794Z,4.30
2024-05-09T20:36:13.447Z,4.10
2024-05-09T20:41:16.048Z,4.20
2024-05-09T20:46:18.954Z,4.60
2024-05-09T20:51:21.805Z,4.70
2024-05-09T20:56:24.640Z,4.60
2024-05-09T21:01:27.355Z,4.30
2024-05-09T21:06:30.034Z,5.10
2024-05-09T21:11:32.629Z,5.60
2024-05-09T21:16:35.330Z,6.00
2024-05-09T21:21:41.745Z,6.40
2024-05-09T21:26:44.415Z,6.30
2024-05-09T21:31:47.036Z,6.50
2024-05-09T21:36:49.661Z,5.90
2024-05-09T21:41:52.312Z,5.60
2024-05-09T21:46:55.100Z,6.40
2024-05-09T21:51:57.840Z,5.80
2024-05-09T21:57:00.424Z,5.70
2024-05-09T22:02:03.266Z,6.20
2024-05-09T22:07:06.659Z,6.20
2024-05-09T22:12:09.511Z,6.20
2024-05-09T22:17:12.248Z,5.70
2024-05-09T22:22:15.072Z,5.50
2024-05-09T22:27:17.972Z,5.20
2024-05-09T22:32:20.718Z,5.50
2024-05-09T22:37:23.474Z,5.20
2024-05-09T22:42:27.051Z,6.00
2024-05-09T22:47:29.724Z,6.40
2024-05-09T22:52:32.444Z,6.40
2024-05-09T22:57:35.099Z,5.60
2024-05-09T23:02:37.912Z,4.90
2024-05-09T23:07:40.584Z,5.40
2024-05-09T23:12:43.305Z,5.50
2024-05-09T23:17:46.068Z,5.20
2024-05-09T23:22:48.786Z,4.30
2024-05-09T23:27:51.430Z,5.20
2024-05-09T23:32:54.287Z,5.10
2024-05-09T23:37:57.147Z,5.10
2024-05-09T23:42:59.796Z,4.50
2024-05-09T23:48:02.837Z,4.90
2024-05-09T23:53:07.774Z,5.00
